createdAt,value
2018-12-22T00:01:55.806Z,1.33
2018-12-22T00:04:26.804Z,1.30
2018-12-22T00:06:59.429Z,1.30
2018-12-22T00:09:30.523Z,1.40
2018-12-22T00:12:01.390Z,1.13
2018-12-22T00:14:32.644Z,1.17
2018-12-22T00:17:03.591Z,1.20
2018-12-22T00:19:34.623Z,1.50
2018-12-22T00:22:06.255Z,1.13
2018-12-22T00:24:37.360Z,1.40
2018-12-22T00:27:08.243Z,1.20
2018-12-22T00:29:39.143Z,1.23
2018-12-22T00:32:10.035Z,1.37
2018-12-22T00:34:43.059Z,1.20
2018-12-22T00:37:15.016Z,1.37
2018-12-22T00:39:45.907Z,1.33
2018-12-22T00:42:16.826Z,1.20
2018-12-22T00:44:47.820Z,1.40
2018-12-22T00:47:18.673Z,1.30
2018-12-22T00:49:49.900Z,1.20
2018-12-22T00:52:20.883Z,1.13
2018-12-22T00:54:51.832Z,1.10
2018-12-22T00:57:22.647Z,1.30
2018-12-22T00:59:53.507Z,1.53
2018-12-22T01:02:24.283Z,1.10
2018-12-22T01:04:55.268Z,1.33
2018-12-22T01:07:26.115Z,1.20
2018-12-22T01:09:57.039Z,1.30
2018-12-22T01:12:27.887Z,1.10
2018-12-22T01:14:58.788Z,1.20
2018-12-22T01:17:29.648Z,1.10
2018-12-22T01:20:00.532Z,1.20
2018-12-22T01:22:31.429Z,1.10
2018-12-22T01:25:02.507Z,1.33
2018-12-22T01:27:33.391Z,1.47
2018-12-22T01:30:04.580Z,2.10
2018-12-22T01:32:35.427Z,1.87
2018-12-22T01:35:06.660Z,2.10
2018-12-22T01:37:37.508Z,1.80
2018-12-22T01:40:08.728Z,2.10
2018-12-22T01:42:40.068Z,2.10
2018-12-22T01:45:10.989Z,1.90
2018-12-22T01:47:41.875Z,2.40
2018-12-22T01:50:12.828Z,2.30
2018-12-22T01:52:43.699Z,2.40
2018-12-22T01:55:15.741Z,2.30
2018-12-22T01:57:46.524Z,2.60
2018-12-22T02:00:17.443Z,1.60
2018-12-22T02:02:48.362Z,1.77
2018-12-22T02:05:19.187Z,1.60
2018-12-22T02:07:50.107Z,2.10
2018-12-22T02:10:21.007Z,2.00
2018-12-22T02:12:51.846Z,2.20
2018-12-22T02:15:22.741Z,2.40
2018-12-22T02:17:53.658Z,2.60
2018-12-22T02:20:24.636Z,2.40
2018-12-22T02:22:55.356Z,2.40
2018-12-22T02:25:26.120Z,1.43
2018-12-22T02:27:56.865Z,2.80
2018-12-22T02:30:27.946Z,2.50
2018-12-22T02:32:59.064Z,2.30
2018-12-22T02:35:30.087Z,2.57
2018-12-22T02:38:01.146Z,2.37
2018-12-22T02:40:32.018Z,1.50
2018-12-22T02:43:03.295Z,1.30
2018-12-22T02:45:33.999Z,1.30
2018-12-22T02:48:05.139Z,1.30
2018-12-22T02:50:35.958Z,1.03
2018-12-22T02:53:06.697Z,1.10
2018-12-22T02:55:37.505Z,1.23
2018-12-22T02:58:08.327Z,1.30
2018-12-22T03:00:39.177Z,1.20
2018-12-22T03:03:09.967Z,1.33
2018-12-22T03:05:40.776Z,1.60
2018-12-22T03:08:11.563Z,1.60
2018-12-22T03:10:42.358Z,1.43
2018-12-22T03:13:13.068Z,1.47
2018-12-22T03:15:43.788Z,1.67
2018-12-22T03:18:14.656Z,1.40
2018-12-22T03:20:45.537Z,1.70
2018-12-22T03:23:16.311Z,1.70
2018-12-22T03:25:46.996Z,1.50
2018-12-22T03:28:17.692Z,1.80
2018-12-22T03:30:48.412Z,1.90
2018-12-22T03:33:19.166Z,1.70
2018-12-22T03:35:49.956Z,1.60
2018-12-22T03:38:20.868Z,2.13
2018-12-22T03:40:51.617Z,1.70
2018-12-22T03:43:22.312Z,1.70
2018-12-22T03:45:53.071Z,1.70
2018-12-22T03:48:23.733Z,1.43
2018-12-22T03:50:54.557Z,1.40
2018-12-22T03:53:28.117Z,1.50
2018-12-22T03:55:58.918Z,1.63
2018-12-22T03:58:29.637Z,1.43
2018-12-22T04:01:00.334Z,1.50
2018-12-22T04:03:32.132Z,2.20
2018-12-22T04:06:02.856Z,2.57
2018-12-22T04:08:33.639Z,2.70
2018-12-22T04:11:04.485Z,2.50
2018-12-22T04:13:35.310Z,3.07
2018-12-22T04:16:06.487Z,2.50
2018-12-22T04:18:37.624Z,2.20
2018-12-22T04:21:08.456Z,1.87
2018-12-22T04:23:39.216Z,1.37
2018-12-22T04:26:09.979Z,1.30
2018-12-22T04:28:40.762Z,1.60
2018-12-22T04:31:11.476Z,1.70
2018-12-22T04:33:42.266Z,1.97
2018-12-22T04:36:13.017Z,2.00
2018-12-22T04:38:43.752Z,2.17
2018-12-22T04:41:14.454Z,2.10
2018-12-22T04:43:45.170Z,1.63
2018-12-22T04:46:15.877Z,1.40
2018-12-22T04:48:46.620Z,1.60
2018-12-22T04:51:17.485Z,1.13
2018-12-22T04:53:48.150Z,1.30
2018-12-22T04:56:19.276Z,1.10
2018-12-22T04:58:51.145Z,1.13
2018-12-22T05:01:21.839Z,1.17
2018-12-22T05:03:52.573Z,1.20
2018-12-22T05:06:23.280Z,1.23
2018-12-22T05:08:54.089Z,1.30
2018-12-22T05:11:24.769Z,1.30
2018-12-22T05:13:55.512Z,1.80
2018-12-22T05:16:26.300Z,1.60
2018-12-22T05:18:56.929Z,1.67
2018-12-22T05:21:27.733Z,1.63
2018-12-22T05:23:58.377Z,1.60
2018-12-22T05:26:29.026Z,1.70
2018-12-22T05:28:59.678Z,1.40
2018-12-22T05:31:36.753Z,1.83
2018-12-22T05:34:07.385Z,1.50
2018-12-22T05:36:38.031Z,1.70
2018-12-22T05:39:09.660Z,1.50
2018-12-22T05:41:41.209Z,1.37
2018-12-22T05:44:11.859Z,1.50
2018-12-22T05:46:42.505Z,1.60
2018-12-22T05:49:13.152Z,1.50
2018-12-22T05:51:44.027Z,1.67
2018-12-22T05:54:14.707Z,1.80
2018-12-22T05:56:45.358Z,1.40
2018-12-22T05:59:15.970Z,1.60
2018-12-22T06:01:46.621Z,1.50
2018-12-22T06:04:17.232Z,1.60
2018-12-22T06:06:47.874Z,1.80
2018-12-22T06:09:18.540Z,3.10
2018-12-22T06:11:49.193Z,3.53
2018-12-22T06:14:19.863Z,3.77
2018-12-22T06:16:50.505Z,4.00
2018-12-22T06:19:21.174Z,4.63
2018-12-22T06:21:51.837Z,3.90
2018-12-22T06:24:22.495Z,4.57
2018-12-22T06:26:53.629Z,4.10
2018-12-22T06:29:24.256Z,4.30
2018-12-22T06:31:54.893Z,4.10
2018-12-22T06:34:25.550Z,4.20
2018-12-22T06:36:56.237Z,4.80
2018-12-22T06:39:26.905Z,3.97
2018-12-22T06:41:57.544Z,4.30
2018-12-22T06:44:28.197Z,11.23
2018-12-22T06:46:58.828Z,5.73
2018-12-22T06:49:29.631Z,21.33
2018-12-22T06:52:00.285Z,13.60
2018-12-22T06:54:30.935Z,8.47
2018-12-22T06:57:01.625Z,7.97
2018-12-22T06:59:32.364Z,6.50
2018-12-22T07:02:03.045Z,5.20
2018-12-22T07:04:33.710Z,5.10
2018-12-22T07:07:04.443Z,5.50
2018-12-22T07:09:35.222Z,5.07
2018-12-22T07:12:06.116Z,5.37
2018-12-22T07:14:36.825Z,4.80
2018-12-22T07:17:07.506Z,5.00
2018-12-22T07:19:38.224Z,18.97
2018-12-22T07:22:08.868Z,7.20
2018-12-22T07:24:39.547Z,16.23
2018-12-22T07:27:10.365Z,35.77
2018-12-22T07:29:41.396Z,43.57
2018-12-22T07:32:12.230Z,16.43
2018-12-22T07:34:42.947Z,10.43
2018-12-22T07:37:13.632Z,10.40
2018-12-22T07:39:44.363Z,18.43
2018-12-22T07:42:15.492Z,13.47
2018-12-22T07:44:46.174Z,9.43
2018-12-22T07:47:17.096Z,11.33
2018-12-22T07:49:47.811Z,10.27
2018-12-22T07:52:18.749Z,2.63
2018-12-22T07:54:49.517Z,7.37
2018-12-22T07:57:20.204Z,7.00
2018-12-22T07:59:50.871Z,7.00
2018-12-22T08:02:24.681Z,5.93
2018-12-22T08:04:57.841Z,6.40
2018-12-22T08:07:28.625Z,13.27
2018-12-22T08:09:59.336Z,27.63
2018-12-22T08:12:30.112Z,13.33
2018-12-22T08:15:00.788Z,7.20
2018-12-22T08:17:31.896Z,7.57
2018-12-22T08:20:03.093Z,7.10
2018-12-22T08:22:33.830Z,13.10
2018-12-22T08:25:04.937Z,7.87
2018-12-22T08:27:35.625Z,7.53
2018-12-22T08:30:08.839Z,6.60
2018-12-22T08:32:39.610Z,7.03
2018-12-22T08:35:10.807Z,7.10
2018-12-22T08:37:41.613Z,6.83
2018-12-22T08:40:12.967Z,6.20
2018-12-22T08:42:43.629Z,5.40
2018-12-22T08:45:14.373Z,6.57
2018-12-22T08:47:45.013Z,6.20
2018-12-22T08:50:15.737Z,6.20
2018-12-22T08:52:46.416Z,5.70
2018-12-22T08:55:17.101Z,6.23
2018-12-22T08:57:47.944Z,6.20
2018-12-22T09:00:18.658Z,6.33
2018-12-22T09:02:49.391Z,6.43
2018-12-22T09:05:20.073Z,5.30
2018-12-22T09:07:51.122Z,7.83
2018-12-22T09:10:21.847Z,6.90
2018-12-22T09:12:52.505Z,6.77
2018-12-22T09:15:23.457Z,7.30
2018-12-22T09:17:54.252Z,7.47
2018-12-22T09:20:24.909Z,7.00
2018-12-22T09:22:55.609Z,7.30
2018-12-22T09:25:26.260Z,6.33
2018-12-22T09:27:57.518Z,5.97
2018-12-22T09:30:35.150Z,5.80
2018-12-22T09:33:05.840Z,5.80
2018-12-22T09:35:36.520Z,6.00
2018-12-22T09:38:07.191Z,6.03
2018-12-22T09:40:37.832Z,5.40
2018-12-22T09:43:08.505Z,5.60
2018-12-22T09:45:39.236Z,4.90
2018-12-22T09:48:09.908Z,5.30
2018-12-22T09:50:40.578Z,5.33
2018-12-22T09:53:11.298Z,6.03
2018-12-22T09:55:41.953Z,5.90
2018-12-22T09:58:12.633Z,5.83
2018-12-22T10:00:43.325Z,6.77
2018-12-22T10:03:14.022Z,7.27
2018-12-22T10:05:44.652Z,5.87
2018-12-22T10:08:15.350Z,5.73
2018-12-22T10:10:46.188Z,6.00
2018-12-22T10:13:17.227Z,6.00
2018-12-22T10:15:48.559Z,5.90
2018-12-22T10:18:19.408Z,6.50
2018-12-22T10:20:51.507Z,12.07
2018-12-22T10:23:25.226Z,6.10
2018-12-22T10:25:56.052Z,5.67
2018-12-22T10:28:26.900Z,6.00
2018-12-22T10:30:58.282Z,6.07
2018-12-22T10:33:29.175Z,5.80
2018-12-22T10:36:00.073Z,5.80
2018-12-22T10:38:30.958Z,5.50
2018-12-22T10:41:02.605Z,5.70
2018-12-22T10:43:33.289Z,5.67
2018-12-22T10:46:04.023Z,5.77
2018-12-22T10:48:35.299Z,6.27
2018-12-22T10:51:05.993Z,5.70
2018-12-22T10:53:36.697Z,5.97
2018-12-22T10:56:07.467Z,6.00
2018-12-22T10:58:38.110Z,5.87
2018-12-22T11:01:08.895Z,6.10
2018-12-22T11:03:39.542Z,5.50
2018-12-22T11:06:10.236Z,6.47
2018-12-22T11:08:41.040Z,6.77
2018-12-22T11:11:11.705Z,7.03
2018-12-22T11:13:42.680Z,6.03
2018-12-22T11:16:13.376Z,6.30
2018-12-22T11:18:44.329Z,6.43
2018-12-22T11:21:14.984Z,6.60
2018-12-22T11:23:45.692Z,6.73
2018-12-22T11:26:16.409Z,6.17
2018-12-22T11:28:47.102Z,6.20
2018-12-22T11:31:17.872Z,6.70
2018-12-22T11:33:48.589Z,6.30
2018-12-22T11:36:19.646Z,6.00
2018-12-22T11:38:50.387Z,6.23
2018-12-22T11:41:21.065Z,5.70
2018-12-22T11:43:51.760Z,5.60
2018-12-22T11:46:22.425Z,6.27
2018-12-22T11:49:36.279Z,6.43
2018-12-22T11:52:09.609Z,5.50
2018-12-22T11:54:41.723Z,5.60
2018-12-22T11:57:12.540Z,5.30
2018-12-22T11:59:43.287Z,5.23
2018-12-22T12:02:13.975Z,5.67
2018-12-22T12:04:44.903Z,6.13
2018-12-22T12:07:15.991Z,6.10
2018-12-22T12:09:46.683Z,5.57
2018-12-22T12:12:19.695Z,5.07
2018-12-22T12:14:50.620Z,5.67
2018-12-22T12:18:14.634Z,6.80
2018-12-22T12:20:45.420Z,5.93
2018-12-22T12:23:16.822Z,7.00
2018-12-22T12:25:47.592Z,8.53
2018-12-22T12:28:18.325Z,7.67
2018-12-22T12:30:49.316Z,7.70
2018-12-22T12:33:20.028Z,8.73
2018-12-22T12:35:50.766Z,6.83
2018-12-22T12:38:21.505Z,5.60
2018-12-22T12:40:53.371Z,6.83
2018-12-22T12:43:24.104Z,5.63
2018-12-22T12:45:54.865Z,5.63
2018-12-22T12:48:27.238Z,6.10
2018-12-22T12:50:58.112Z,5.83
2018-12-22T12:53:29.352Z,5.20
2018-12-22T12:56:00.132Z,4.10
2018-12-22T12:58:31.031Z,4.20
2018-12-22T13:01:01.771Z,4.27
2018-12-22T13:03:32.473Z,2.40
2018-12-22T13:06:03.205Z,2.00
2018-12-22T13:08:33.917Z,1.27
2018-12-22T13:11:04.944Z,1.10
2018-12-22T13:13:45.668Z,6.67
2018-12-22T13:16:16.691Z,7.33
2018-12-22T13:18:47.442Z,7.67
2018-12-22T13:21:18.206Z,7.40
2018-12-22T13:23:48.940Z,7.53
2018-12-22T13:26:19.731Z,7.40
2018-12-22T13:28:50.536Z,7.17
2018-12-22T13:31:25.264Z,7.93
2018-12-22T13:33:56.426Z,8.53
2018-12-22T13:36:34.589Z,9.00
2018-12-22T13:39:10.859Z,9.70
2018-12-22T13:41:41.806Z,9.27
2018-12-22T13:44:12.781Z,10.10
2018-12-22T13:46:43.575Z,9.83
2018-12-22T13:49:14.324Z,8.53
2018-12-22T13:51:47.093Z,3.00
2018-12-22T13:54:22.548Z,2.87
2018-12-22T13:56:53.382Z,1.27
2018-12-22T13:59:24.289Z,1.00
2018-12-22T14:02:03.052Z,3.47
2018-12-22T14:04:35.925Z,4.17
2018-12-22T14:07:10.683Z,7.50
2018-12-22T14:09:41.810Z,8.20
2018-12-22T14:12:12.716Z,8.83
2018-12-22T14:14:44.017Z,9.27
2018-12-22T14:17:27.790Z,10.13
2018-12-22T14:20:08.158Z,9.33
2018-12-22T14:22:38.944Z,9.83
2018-12-22T14:25:19.426Z,10.03
2018-12-22T14:27:50.297Z,10.33
2018-12-22T14:30:25.587Z,10.87
2018-12-22T14:32:56.497Z,8.63
2018-12-22T14:35:40.304Z,8.13
2018-12-22T14:38:11.301Z,6.50
2018-12-22T14:40:42.455Z,6.00
2018-12-22T14:43:13.288Z,5.43
2018-12-22T14:45:44.121Z,11.30
2018-12-22T14:48:15.252Z,11.60
2018-12-22T14:50:46.142Z,11.60
2018-12-22T14:53:17.159Z,11.90
2018-12-22T14:55:48.292Z,11.07
2018-12-22T14:58:26.922Z,12.03
2018-12-22T15:00:58.020Z,11.57
2018-12-22T15:03:28.781Z,9.40
2018-12-22T15:05:59.847Z,9.10
2018-12-22T15:08:30.780Z,11.00
2018-12-22T15:11:03.553Z,27.03
2018-12-22T15:13:35.374Z,22.50
2018-12-22T15:16:06.238Z,19.57
2018-12-22T15:18:37.581Z,18.63
2018-12-22T15:21:09.130Z,16.97
2018-12-22T15:23:39.957Z,17.07
2018-12-22T15:26:11.792Z,18.60
2018-12-22T15:28:47.174Z,18.93
2018-12-22T15:31:17.912Z,18.23
2018-12-22T15:33:49.109Z,18.93
2018-12-22T15:36:20.682Z,17.67
2018-12-22T15:38:51.544Z,15.53
2018-12-22T15:41:22.814Z,15.93
2018-12-22T15:43:53.706Z,15.57
2018-12-22T15:46:24.655Z,13.77
2018-12-22T15:48:55.562Z,12.20
2018-12-22T15:51:26.524Z,11.63
2018-12-22T15:53:57.773Z,10.80
2018-12-22T15:56:29.118Z,8.00
2018-12-22T15:59:00.213Z,6.70
2018-12-22T16:01:33.846Z,5.53
2018-12-22T16:04:05.221Z,10.40
2018-12-22T16:06:36.285Z,4.90
2018-12-22T16:09:08.896Z,10.17
2018-12-22T16:11:39.791Z,18.30
2018-12-22T16:14:11.868Z,19.77
2018-12-22T16:16:49.539Z,20.97
2018-12-22T16:19:22.301Z,21.70
2018-12-22T16:21:58.623Z,19.27
2018-12-22T16:27:35.562Z,21.20
2018-12-22T16:30:27.819Z,20.53
2018-12-22T16:33:11.023Z,20.17
2018-12-22T16:35:53.418Z,19.83
2018-12-22T16:38:36.810Z,18.13
2018-12-22T16:41:17.565Z,17.40
2018-12-22T16:44:05.033Z,37.80
2018-12-22T16:46:59.864Z,31.77
2018-12-22T16:53:16.783Z,1.83
2018-12-22T16:55:58.202Z,1.40
2018-12-22T16:58:42.602Z,31.40
2018-12-22T17:02:34.768Z,17.93
2018-12-22T17:05:16.499Z,19.90
2018-12-22T17:07:54.554Z,20.27
2018-12-22T17:11:40.972Z,19.27
2018-12-22T17:14:20.401Z,14.93
2018-12-22T17:17:01.361Z,17.90
2018-12-22T17:19:44.839Z,18.40
2018-12-22T17:22:35.720Z,18.30
2018-12-22T17:28:17.611Z,17.83
2018-12-22T17:30:56.185Z,17.87
2018-12-22T17:33:32.970Z,16.93
2018-12-22T17:36:18.494Z,17.43
2018-12-22T17:38:55.778Z,16.83
2018-12-22T17:56:01.730Z,11.13
2018-12-22T18:01:54.994Z,8.60
2018-12-22T18:17:48.065Z,14.33
2018-12-22T18:20:25.184Z,12.70
2018-12-22T18:23:02.754Z,12.50
2018-12-22T18:25:40.209Z,12.53
2018-12-22T18:28:17.196Z,13.43
2018-12-22T18:30:54.528Z,12.57
2018-12-22T18:33:35.910Z,11.30
2018-12-22T18:36:10.322Z,9.20
2018-12-22T18:38:47.326Z,8.83
2018-12-22T18:41:24.392Z,11.80
2018-12-22T18:44:01.213Z,11.80
2018-12-22T18:46:37.923Z,13.60
2018-12-22T18:49:15.136Z,12.77
2018-12-22T18:51:46.247Z,12.43
2018-12-22T18:54:17.529Z,13.27
2018-12-22T18:56:48.587Z,16.73
2018-12-22T18:59:21.159Z,10.93
2018-12-22T19:01:52.609Z,10.63
2018-12-22T19:04:23.940Z,9.07
2018-12-22T19:06:55.375Z,7.37
2018-12-22T19:09:30.702Z,9.73
2018-12-22T19:12:06.154Z,9.20
2018-12-22T19:14:37.537Z,10.77
2018-12-22T19:17:08.976Z,11.07
2018-12-22T19:19:40.598Z,10.90
2018-12-22T19:22:12.547Z,9.50
2018-12-22T19:24:44.302Z,12.53
2018-12-22T19:27:15.499Z,18.30
2018-12-22T19:29:48.140Z,14.93
2018-12-22T19:32:21.123Z,16.20
2018-12-22T19:34:52.682Z,14.73
2018-12-22T19:37:24.018Z,11.80
2018-12-22T19:39:55.327Z,13.83
2018-12-22T19:42:26.586Z,11.73
2018-12-22T19:44:59.317Z,6.30
2018-12-22T19:47:32.577Z,6.50
2018-12-22T19:50:04.419Z,5.60
2018-12-22T19:52:38.506Z,6.03
2018-12-22T19:55:10.755Z,5.57
2018-12-22T19:57:45.324Z,5.63
2018-12-22T20:00:17.306Z,5.07
2018-12-22T20:02:49.192Z,4.67
2018-12-22T20:05:21.136Z,4.80
2018-12-22T20:07:53.175Z,8.13
2018-12-22T20:10:26.479Z,10.57
2018-12-22T20:13:01.234Z,11.73
2018-12-22T20:15:32.703Z,13.30
2018-12-22T20:18:04.879Z,11.40
2018-12-22T20:20:37.806Z,12.83
2018-12-22T20:23:10.785Z,12.77
2018-12-22T20:25:43.423Z,11.83
2018-12-22T20:28:15.029Z,13.30
2018-12-22T20:30:46.581Z,12.00
2018-12-22T20:33:18.389Z,13.00
2018-12-22T20:35:49.785Z,13.57
2018-12-22T20:38:23.021Z,13.17
2018-12-22T20:40:54.524Z,13.00
2018-12-22T20:43:26.611Z,13.30
2018-12-22T20:45:57.881Z,13.20
2018-12-22T20:48:29.586Z,13.43
2018-12-22T20:51:02.376Z,14.20
2018-12-22T20:53:34.205Z,14.57
2018-12-22T20:56:05.748Z,16.00
2018-12-22T20:58:38.405Z,16.13
2018-12-22T21:01:09.833Z,16.63
2018-12-22T21:03:42.805Z,16.77
2018-12-22T21:06:24.737Z,16.07
2018-12-22T21:08:59.277Z,16.83
2018-12-22T21:11:31.035Z,15.13
2018-12-22T21:14:04.208Z,14.00
2018-12-22T21:16:35.573Z,14.43
2018-12-22T21:19:06.928Z,15.23
2018-12-22T21:21:38.268Z,14.47
2018-12-22T21:24:09.987Z,15.07
2018-12-22T21:26:41.250Z,13.50
2018-12-22T21:29:13.035Z,13.57
2018-12-22T21:31:45.152Z,13.97
2018-12-22T21:34:16.909Z,13.00
2018-12-22T21:36:49.734Z,13.33
2018-12-22T21:39:21.161Z,14.20
2018-12-22T21:41:52.616Z,19.77
2018-12-22T21:44:24.697Z,22.10
2018-12-22T21:46:56.370Z,20.77
2018-12-22T21:49:27.368Z,20.20
2018-12-22T21:51:58.377Z,18.73
2018-12-22T21:54:29.389Z,19.00
2018-12-22T21:57:00.280Z,18.33
2018-12-22T21:59:31.162Z,19.53
2018-12-22T22:02:02.590Z,22.03
2018-12-22T22:04:37.160Z,19.13
2018-12-22T22:07:07.639Z,19.17
2018-12-22T22:09:38.666Z,18.93
2018-12-22T22:12:09.697Z,19.07
2018-12-22T22:14:40.410Z,21.60
2018-12-22T22:17:11.578Z,21.70
2018-12-22T22:19:45.871Z,18.37
2018-12-22T22:22:16.791Z,19.67
2018-12-22T22:24:47.749Z,17.17
2018-12-22T22:27:18.576Z,18.57
2018-12-22T22:29:49.547Z,16.93
2018-12-22T22:32:21.122Z,17.47
2018-12-22T22:34:52.613Z,17.73
2018-12-22T22:37:23.669Z,19.17
2018-12-22T22:39:55.785Z,18.37
2018-12-22T22:42:26.565Z,18.10
2018-12-22T22:44:57.438Z,18.27
2018-12-22T22:47:28.248Z,18.53
2018-12-22T22:49:59.523Z,18.87
2018-12-22T22:52:30.464Z,16.67
2018-12-22T22:55:01.218Z,17.67
2018-12-22T22:57:32.074Z,19.00
2018-12-22T23:00:02.879Z,17.60
2018-12-22T23:02:34.499Z,18.83
2018-12-22T23:05:05.669Z,18.33
2018-12-22T23:07:36.889Z,17.27
2018-12-22T23:10:08.763Z,18.13
2018-12-22T23:12:39.585Z,19.10
2018-12-22T23:15:10.536Z,17.90
2018-12-22T23:17:41.388Z,16.77
2018-12-22T23:20:12.176Z,16.03
2018-12-22T23:22:42.882Z,16.90
2018-12-22T23:25:13.748Z,15.93
2018-12-22T23:27:44.505Z,15.30
2018-12-22T23:30:16.720Z,14.37
2018-12-22T23:32:47.562Z,14.07
2018-12-22T23:35:18.525Z,13.77
2018-12-22T23:37:49.365Z,14.20
2018-12-22T23:40:20.145Z,15.93
2018-12-22T23:42:50.945Z,16.70
2018-12-22T23:45:21.759Z,15.53
2018-12-22T23:47:53.063Z,19.00
2018-12-22T23:50:23.855Z,20.00
2018-12-22T23:52:54.614Z,21.30
2018-12-22T23:55:25.365Z,18.23
2018-12-22T23:57:56.096Z,16.17
